Terminal Aerodrome Forecast
Issued by NWS Melbourne, FL

Home | Current Version | Previous Version | Text Only | Print | Product List | Glossary On
Versions: 1 2 3 4 5 6 7 8 9 10
707
FTUS42 KMLB 261240 RRA
TAFDAB
TAF
KDAB 261240Z 2613/2712 23003KT P6SM SKC
     FM261500 23007KT P6SM SKC
     FM261900 14008KT P6SM FEW040=

USA.gov is the U.S. government's official web portal to all federal, state and local government web resources and services.